CMB weather

Bandaranaike International Colombo Airport
Colombo, Western Province, Sri Lanka

Public forecast

Using degrees Celsius for public forecast. Weather courtesy of forecast.io.

METAR (pilot weather report)

Report is more than 6 hours old.

Retrieved 2017/03/28 07:10 UTC (7 hours ago):

VCBI 280710Z 25007KT 220V300 9999 SCT018 31/24 Q1012 NOSIG

TAF (pilot weather forecast)

Forecast is more than 12 hours old.

Retrieved 2017/03/24 06:00 UTC (4 days ago):

TAF VCBI 240340Z 2406/2512 27010KT 9999 NSC TX32/2408Z TN25/2500Z BECMG 2413/2415 12006KT TEMPO 2423/2503 6000